Terminal Aerodrome Forecast
Issued by NWS

Home | Current Version | Previous Version | Text Only | Print | Product List | Glossary On
Versions: 1 2 3 4 5 6 7 8 9 10 11 12 13 14 15 16 17 18 19 20 21 22 23 24 25 26
000
FTUS46 KSGX 272056 AAA
TAFSAN
TAF AMD
KSAN 272056Z 2721/2824 19012KT P6SM BKN035
     FM272300 23012KT P6SM BKN030
     FM280300 24012KT P6SM VCSH BKN030 BKN040
     FM280800 26013G22KT P6SM VCSH BKN025 BKN045
     FM281500 26013G22KT P6SM VCSH BKN035 BKN045=

USA.gov is the U.S. government's official web portal to all federal, state and local government web resources and services.